createdAt,value
2019-03-12T00:00:16.127Z,2.7
2019-03-12T00:01:16.162Z,2.7
2019-03-12T00:02:16.150Z,2.7
2019-03-12T00:03:16.186Z,2.7
2019-03-12T00:04:16.164Z,2.7
2019-03-12T00:05:16.139Z,2.7
2019-03-12T00:06:16.168Z,2.8
2019-03-12T00:07:16.180Z,2.7
2019-03-12T00:08:16.180Z,2.7
2019-03-12T00:09:16.188Z,2.8
2019-03-12T00:10:16.192Z,2.7
2019-03-12T00:11:18.452Z,2.7
2019-03-12T00:12:16.183Z,2.7
2019-03-12T00:13:16.217Z,2.7
2019-03-12T00:14:16.277Z,2.7
2019-03-12T00:15:16.248Z,2.7
2019-03-12T00:17:16.233Z,2.7
2019-03-12T00:18:16.249Z,2.7
2019-03-12T00:19:16.265Z,2.7
2019-03-12T00:20:16.291Z,2.7
2019-03-12T00:21:16.251Z,2.8
2019-03-12T00:22:16.263Z,2.8
2019-03-12T00:23:16.260Z,2.8
2019-03-12T00:24:16.290Z,2.8
2019-03-12T00:25:16.387Z,2.8
2019-03-12T00:26:16.278Z,2.8
2019-03-12T00:27:16.281Z,2.9
2019-03-12T00:28:16.295Z,2.8
2019-03-12T00:29:16.304Z,2.9
2019-03-12T00:30:16.322Z,2.7
2019-03-12T00:31:16.347Z,2.8
2019-03-12T00:32:16.315Z,2.7
2019-03-12T00:33:16.379Z,2.7
2019-03-12T00:34:16.369Z,2.7
2019-03-12T00:35:16.356Z,2.8
2019-03-12T00:36:16.387Z,2.8
2019-03-12T00:37:16.359Z,2.8
2019-03-12T00:38:16.374Z,2.8
2019-03-12T00:39:16.382Z,2.8
2019-03-12T00:40:16.373Z,2.8
2019-03-12T00:41:16.396Z,2.8
2019-03-12T00:42:16.404Z,2.9
2019-03-12T00:43:16.380Z,2.9
2019-03-12T00:44:16.394Z,2.9
2019-03-12T00:45:16.464Z,2.9
2019-03-12T00:46:16.404Z,2.9
2019-03-12T00:47:16.416Z,2.9
2019-03-12T00:48:16.416Z,3
2019-03-12T00:49:16.395Z,3
2019-03-12T00:50:16.430Z,3.1
2019-03-12T00:51:16.455Z,3
2019-03-12T00:52:16.418Z,3
2019-03-12T00:53:16.460Z,3
2019-03-12T00:54:16.538Z,3
2019-03-12T00:55:16.438Z,3
2019-03-12T00:56:16.990Z,3
2019-03-12T00:57:16.474Z,3
2019-03-12T00:58:16.479Z,3
2019-03-12T00:59:16.478Z,3
2019-03-12T01:00:16.462Z,3
2019-03-12T01:01:16.479Z,2.9
2019-03-12T01:02:16.460Z,2.9
2019-03-12T01:03:16.486Z,2.9
2019-03-12T01:04:16.489Z,2.9
2019-03-12T01:05:16.504Z,3
2019-03-12T01:06:16.537Z,3
2019-03-12T01:07:16.519Z,2.9
2019-03-12T01:08:17.294Z,2.9
2019-03-12T01:09:16.511Z,2.9
2019-03-12T01:10:16.529Z,2.9
2019-03-12T01:11:16.521Z,2.9
2019-03-12T01:12:16.510Z,2.9
2019-03-12T01:13:16.544Z,2.9
2019-03-12T01:14:16.552Z,2.9
2019-03-12T01:15:16.581Z,2.9
2019-03-12T01:16:16.539Z,2.9
2019-03-12T01:17:16.550Z,2.9
2019-03-12T01:18:16.544Z,2.9
2019-03-12T01:19:16.578Z,2.9
2019-03-12T01:20:16.618Z,2.9
2019-03-12T01:21:16.832Z,2.9
2019-03-12T01:22:16.580Z,2.9
2019-03-12T01:23:16.617Z,2.9
2019-03-12T01:24:16.563Z,2.7
2019-03-12T01:25:16.577Z,2.8
2019-03-12T01:26:16.648Z,2.7
2019-03-12T01:28:24.602Z,2.7
2019-03-12T01:29:16.593Z,2.7
2019-03-12T01:31:16.586Z,2.7
2019-03-12T01:32:16.615Z,2.7
2019-03-12T01:33:16.612Z,2.7
2019-03-12T01:34:16.627Z,2.7
2019-03-12T01:35:16.632Z,2.6
2019-03-12T01:36:16.634Z,2.6
2019-03-12T01:37:16.628Z,2.7
2019-03-12T01:38:16.646Z,2.6
2019-03-12T01:39:16.680Z,2.6
2019-03-12T01:40:16.637Z,2.6
2019-03-12T01:41:16.680Z,2.6
2019-03-12T01:42:16.694Z,2.6
2019-03-12T01:43:19.166Z,2.6
2019-03-12T01:44:16.674Z,2.6
2019-03-12T01:45:16.743Z,2.5
2019-03-12T01:46:16.684Z,2.5
2019-03-12T01:47:16.672Z,2.4
2019-03-12T01:48:16.836Z,2.5
2019-03-12T01:49:16.831Z,2.5
2019-03-12T01:50:16.731Z,2.5
2019-03-12T01:51:16.738Z,2.5
2019-03-12T01:52:16.747Z,2.4
2019-03-12T01:53:16.738Z,2.4
2019-03-12T01:54:16.758Z,2.5
2019-03-12T01:55:16.758Z,2.4
2019-03-12T01:56:16.780Z,2.4
2019-03-12T01:57:16.806Z,2.4
2019-03-12T01:58:16.784Z,2.4
2019-03-12T01:59:16.800Z,2.4
2019-03-12T02:00:16.773Z,2.4
2019-03-12T02:01:16.776Z,2.4
2019-03-12T02:02:16.798Z,2.4
2019-03-12T02:03:16.806Z,2.4
2019-03-12T02:04:16.831Z,2.4
2019-03-12T02:05:16.827Z,2.4
2019-03-12T02:06:16.847Z,2.4
2019-03-12T02:07:16.843Z,2.4
2019-03-12T02:08:16.908Z,2.4
2019-03-12T02:09:16.849Z,2.4
2019-03-12T02:10:16.841Z,2.4
2019-03-12T02:11:16.834Z,2.5
2019-03-12T02:12:16.850Z,2.4
2019-03-12T02:13:16.862Z,2.4
2019-03-12T02:14:16.853Z,2.4
2019-03-12T02:15:16.899Z,2.3
2019-03-12T02:16:16.911Z,2.3
2019-03-12T02:17:16.886Z,2.3
2019-03-12T02:18:16.867Z,2.3
2019-03-12T02:19:16.898Z,2.3
2019-03-12T02:20:16.927Z,2.3
2019-03-12T02:21:16.916Z,2.3
2019-03-12T02:22:16.922Z,2.4
2019-03-12T02:23:16.906Z,2.3
2019-03-12T02:24:16.915Z,2.4
2019-03-12T02:25:16.938Z,2.4
2019-03-12T02:26:16.915Z,2.4
2019-03-12T02:27:16.914Z,2.3
2019-03-12T02:28:16.944Z,2.3
2019-03-12T02:29:16.945Z,2.3
2019-03-12T02:30:16.935Z,2.3
2019-03-12T02:31:16.946Z,2.3
2019-03-12T02:32:16.934Z,2.3
2019-03-12T02:33:16.924Z,2.3
2019-03-12T02:34:18.090Z,2.3
2019-03-12T02:35:16.963Z,2.3
2019-03-12T02:36:16.970Z,2.3
2019-03-12T02:37:16.987Z,2.3
2019-03-12T02:38:16.988Z,2.3
2019-03-12T02:39:17.018Z,2.3
2019-03-12T02:40:16.998Z,2.3
2019-03-12T02:41:17.019Z,2.3
2019-03-12T02:42:17.024Z,2.3
2019-03-12T02:43:17.223Z,2.3
2019-03-12T02:44:17.035Z,2.3
2019-03-12T02:45:17.098Z,2.3
2019-03-12T02:46:17.065Z,2.3
2019-03-12T02:47:18.094Z,2.2
2019-03-12T02:48:17.057Z,2.2
2019-03-12T02:49:17.123Z,2.2
2019-03-12T02:50:17.092Z,2.2
2019-03-12T02:51:17.186Z,2.2
2019-03-12T02:52:17.112Z,2.2
2019-03-12T02:53:17.146Z,2.2
2019-03-12T02:54:17.294Z,2.2
2019-03-12T02:55:17.148Z,2.2
2019-03-12T02:56:17.201Z,2.2
2019-03-12T02:57:17.281Z,2.2
2019-03-12T02:58:17.180Z,2.2
2019-03-12T02:59:17.185Z,2.2
2019-03-12T03:00:17.203Z,2.2
2019-03-12T03:01:17.218Z,2.3
2019-03-12T03:02:17.218Z,2.3
2019-03-12T03:03:17.233Z,2.2
2019-03-12T03:04:17.263Z,2.2
2019-03-12T03:05:17.260Z,2.2
2019-03-12T03:06:17.345Z,2.2
2019-03-12T03:07:17.370Z,2.1
2019-03-12T03:08:17.549Z,2.2
2019-03-12T03:09:17.291Z,2.2
2019-03-12T03:10:17.300Z,2.2
2019-03-12T03:11:17.317Z,2.2
2019-03-12T03:12:17.367Z,2.2
2019-03-12T03:13:17.498Z,2.2
2019-03-12T03:14:17.369Z,2.2
2019-03-12T03:15:17.403Z,2.2
2019-03-12T03:16:17.368Z,2.2
2019-03-12T03:17:17.374Z,2.3
2019-03-12T03:18:17.393Z,2.3
2019-03-12T03:19:17.414Z,2.2
2019-03-12T03:20:17.400Z,2.3
2019-03-12T03:21:17.425Z,2.3
2019-03-12T03:22:17.424Z,2.3
2019-03-12T03:23:17.422Z,2.2
2019-03-12T03:24:17.466Z,2.2
2019-03-12T03:25:17.463Z,2.2
2019-03-12T03:26:17.462Z,2.2
2019-03-12T03:27:17.475Z,2.2
2019-03-12T03:28:17.521Z,2
2019-03-12T03:29:17.547Z,2.2
2019-03-12T03:30:17.515Z,2.1
2019-03-12T03:31:17.668Z,2.1
2019-03-12T03:32:17.498Z,2.1
2019-03-12T03:33:17.542Z,2.1
2019-03-12T03:34:17.565Z,2
2019-03-12T03:35:17.649Z,2.1
2019-03-12T03:36:17.602Z,2
2019-03-12T03:37:17.620Z,2
2019-03-12T03:38:17.576Z,2
2019-03-12T03:39:17.582Z,2
2019-03-12T03:40:17.596Z,2
2019-03-12T03:41:17.609Z,2.1
2019-03-12T03:42:17.760Z,2.1
2019-03-12T03:43:17.639Z,2.1
2019-03-12T03:44:17.634Z,2.1
2019-03-12T03:45:17.665Z,2.1
2019-03-12T03:46:17.686Z,2
2019-03-12T03:47:19.772Z,2
2019-03-12T03:48:17.661Z,2
2019-03-12T03:49:17.713Z,2
2019-03-12T03:50:17.714Z,2
2019-03-12T03:51:17.704Z,1.9
2019-03-12T03:52:17.708Z,2
2019-03-12T03:53:17.739Z,2
2019-03-12T03:54:17.740Z,2
2019-03-12T03:55:17.767Z,1.9
2019-03-12T03:56:17.761Z,1.9
2019-03-12T03:57:17.758Z,2
2019-03-12T03:58:18.817Z,2
2019-03-12T03:59:17.799Z,2
2019-03-12T04:00:17.873Z,1.9
2019-03-12T04:01:17.924Z,1.9
2019-03-12T04:02:17.913Z,1.9
2019-03-12T04:03:17.817Z,1.9
2019-03-12T04:04:17.819Z,1.8
2019-03-12T04:05:17.851Z,1.8
2019-03-12T04:06:17.845Z,1.8
2019-03-12T04:07:17.880Z,1.7
2019-03-12T04:08:17.857Z,1.7
2019-03-12T04:09:17.883Z,1.7
2019-03-12T04:10:17.868Z,1.7
2019-03-12T04:11:17.879Z,1.7
2019-03-12T04:12:17.927Z,1.6
2019-03-12T04:13:17.933Z,1.5
2019-03-12T04:14:17.920Z,1.6
2019-03-12T04:15:18.045Z,1.7
2019-03-12T04:16:17.978Z,1.5
2019-03-12T04:17:17.930Z,1.5
2019-03-12T04:18:17.934Z,1.5
2019-03-12T04:19:17.971Z,1.5
2019-03-12T04:20:17.961Z,1.5
2019-03-12T04:21:18.037Z,1.5
2019-03-12T04:22:18.012Z,1.5
2019-03-12T04:23:17.979Z,1.5
2019-03-12T04:24:18.011Z,1.5
2019-03-12T04:25:18.020Z,1.5
2019-03-12T04:26:18.265Z,1.6
2019-03-12T04:27:18.007Z,1.6
2019-03-12T04:28:18.026Z,1.6
2019-03-12T04:29:18.012Z,1.7
2019-03-12T04:30:18.035Z,1.7
2019-03-12T04:31:18.005Z,1.7
2019-03-12T04:32:18.063Z,1.7
2019-03-12T04:33:20.386Z,1.7
2019-03-12T04:34:18.064Z,1.7
2019-03-12T04:35:18.053Z,1.7
2019-03-12T04:36:19.137Z,1.7
2019-03-12T04:37:18.079Z,1.6
2019-03-12T04:38:18.090Z,1.6
2019-03-12T04:39:18.119Z,1.6
2019-03-12T04:40:18.328Z,1.7
2019-03-12T04:41:18.153Z,1.7
2019-03-12T04:42:18.101Z,1.7
2019-03-12T04:43:18.118Z,1.7
2019-03-12T04:44:18.166Z,1.7
2019-03-12T04:45:18.294Z,1.7
2019-03-12T04:46:18.150Z,1.7
2019-03-12T04:47:18.154Z,1.6
2019-03-12T04:48:18.300Z,1.6
2019-03-12T04:49:18.172Z,1.6
2019-03-12T04:50:18.173Z,1.6
2019-03-12T04:51:18.191Z,1.6
2019-03-12T04:52:18.224Z,1.6
2019-03-12T04:53:18.216Z,1.7
2019-03-12T04:54:18.210Z,1.5
2019-03-12T04:55:18.213Z,1.5
2019-03-12T04:56:18.220Z,1.5
2019-03-12T04:57:18.358Z,1.5
2019-03-12T04:58:18.467Z,1.4
2019-03-12T04:59:18.232Z,1.4
2019-03-12T05:00:18.233Z,1.4
2019-03-12T05:01:18.272Z,1.3
2019-03-12T05:02:18.257Z,1.3
2019-03-12T05:03:18.268Z,1.3
2019-03-12T05:04:18.269Z,1.3
2019-03-12T05:05:18.313Z,1.2
2019-03-12T05:06:19.696Z,1.2
2019-03-12T05:07:18.281Z,1.2
2019-03-12T05:08:18.314Z,1.1
2019-03-12T05:09:18.430Z,1.1
2019-03-12T05:10:18.311Z,1.1
2019-03-12T05:11:18.343Z,1.1
2019-03-12T05:12:18.398Z,1.1
2019-03-12T05:13:19.377Z,1.1
2019-03-12T05:14:18.339Z,1
2019-03-12T05:15:18.391Z,1
2019-03-12T05:16:18.382Z,1
2019-03-12T05:17:18.388Z,1
2019-03-12T05:18:18.345Z,0.9
2019-03-12T05:19:18.385Z,0.9
2019-03-12T05:20:18.393Z,0.9
2019-03-12T05:21:18.401Z,0.9
2019-03-12T05:22:18.385Z,0.9
2019-03-12T05:23:18.490Z,0.9
2019-03-12T05:24:18.431Z,0.8
2019-03-12T05:25:18.399Z,0.9
2019-03-12T05:26:18.476Z,0.8
2019-03-12T05:27:18.423Z,0.7
2019-03-12T05:28:18.452Z,0.8
2019-03-12T05:29:18.451Z,0.8
2019-03-12T05:30:18.441Z,0.7
2019-03-12T05:31:18.543Z,0.6
2019-03-12T05:32:18.473Z,0.6
2019-03-12T05:33:18.474Z,0.6
2019-03-12T05:34:18.483Z,0.6
2019-03-12T05:35:18.691Z,0.7
2019-03-12T05:36:18.581Z,0.7
2019-03-12T05:37:18.482Z,0.7
2019-03-12T05:38:18.478Z,0.7
2019-03-12T05:39:18.513Z,0.7
2019-03-12T05:40:18.526Z,0.7
2019-03-12T05:41:18.514Z,0.8
2019-03-12T05:42:18.604Z,0.8
2019-03-12T05:43:18.498Z,0.9
2019-03-12T05:44:18.490Z,0.9
2019-03-12T05:45:18.532Z,0.9
2019-03-12T05:46:18.531Z,1
2019-03-12T05:47:18.512Z,1
2019-03-12T05:48:18.565Z,1.1
2019-03-12T05:49:18.526Z,1.1
2019-03-12T05:50:18.554Z,1.1
2019-03-12T05:51:18.572Z,1.1
2019-03-12T05:52:18.594Z,1.1
2019-03-12T05:53:18.556Z,1.2
2019-03-12T05:54:18.566Z,1.3
2019-03-12T05:55:18.586Z,1.4
2019-03-12T05:56:18.558Z,1.4
2019-03-12T05:57:18.590Z,1.5
2019-03-12T05:58:19.630Z,1.5
2019-03-12T05:59:18.614Z,1.5
2019-03-12T06:00:18.574Z,1.6
2019-03-12T06:01:18.576Z,1.6
2019-03-12T06:02:18.599Z,1.6
2019-03-12T06:03:18.585Z,1.6
2019-03-12T06:04:18.622Z,1.5
2019-03-12T06:05:18.572Z,1.7
2019-03-12T06:06:18.598Z,1.6
2019-03-12T06:07:18.624Z,1.6
2019-03-12T06:08:18.631Z,1.6
2019-03-12T06:09:29.622Z,1.6
2019-03-12T06:10:18.612Z,1.7
2019-03-12T06:11:18.632Z,1.7
2019-03-12T06:12:18.721Z,1.7
2019-03-12T06:13:18.637Z,1.7
2019-03-12T06:14:18.625Z,1.8
2019-03-12T06:15:18.687Z,1.8
2019-03-12T06:16:18.630Z,1.8
2019-03-12T06:17:18.636Z,1.8
2019-03-12T06:18:18.616Z,1.7
2019-03-12T06:19:18.630Z,1.8
2019-03-12T06:20:18.715Z,1.8
2019-03-12T06:21:18.679Z,1.8
2019-03-12T06:22:18.637Z,1.8
2019-03-12T06:23:18.675Z,1.8
2019-03-12T06:24:18.678Z,1.8
2019-03-12T06:25:18.635Z,1.8
2019-03-12T06:26:18.666Z,1.8
2019-03-12T06:27:18.670Z,1.9
2019-03-12T06:28:18.698Z,1.8
2019-03-12T06:29:18.639Z,1.8
2019-03-12T06:30:18.682Z,1.8
2019-03-12T06:31:18.669Z,1.8
2019-03-12T06:32:18.659Z,1.8
2019-03-12T06:33:18.678Z,1.8
2019-03-12T06:34:18.699Z,1.8
2019-03-12T06:35:21.244Z,1.8
2019-03-12T06:36:18.757Z,1.9
2019-03-12T06:37:18.700Z,1.8
2019-03-12T06:38:18.722Z,1.8
2019-03-12T06:39:18.686Z,1.8
2019-03-12T06:40:18.722Z,1.9
2019-03-12T06:41:18.724Z,1.9
2019-03-12T06:42:18.683Z,1.9
2019-03-12T06:43:18.710Z,2
2019-03-12T06:44:18.712Z,2
2019-03-12T06:45:18.701Z,2
2019-03-12T06:46:18.702Z,2
2019-03-12T06:47:18.726Z,2
2019-03-12T06:48:18.730Z,2.1
2019-03-12T06:49:18.717Z,2.1
2019-03-12T06:50:18.758Z,2.1
2019-03-12T06:51:18.734Z,2.1
2019-03-12T06:52:18.755Z,2.1
2019-03-12T06:53:18.758Z,2.1
2019-03-12T06:54:18.848Z,2.1
2019-03-12T06:55:18.804Z,2.1
2019-03-12T06:56:18.797Z,2
2019-03-12T06:57:18.747Z,2.1
2019-03-12T06:58:18.749Z,2.1
2019-03-12T06:59:18.747Z,2.1
2019-03-12T07:00:18.753Z,2.1
2019-03-12T07:01:18.798Z,2.1
2019-03-12T07:02:18.771Z,2.1
2019-03-12T07:03:18.767Z,2.1
2019-03-12T07:04:20.986Z,2
2019-03-12T07:05:18.810Z,2.1
2019-03-12T07:06:18.819Z,2.1
2019-03-12T07:07:19.821Z,2.1
2019-03-12T07:08:18.791Z,2.1
2019-03-12T07:09:18.814Z,2
2019-03-12T07:10:18.799Z,2
2019-03-12T07:11:18.813Z,2
2019-03-12T07:12:18.805Z,2
2019-03-12T07:13:18.943Z,2
2019-03-12T07:14:18.825Z,2
2019-03-12T07:15:18.875Z,2
2019-03-12T07:16:18.833Z,2
2019-03-12T07:17:18.834Z,2
2019-03-12T07:18:18.843Z,2
2019-03-12T07:19:18.814Z,2.1
2019-03-12T07:20:18.886Z,2.1
2019-03-12T07:21:18.824Z,2.2
2019-03-12T07:22:18.843Z,2.1
2019-03-12T07:23:18.851Z,2.2
2019-03-12T07:24:19.094Z,2.2
2019-03-12T07:25:18.838Z,2.1
2019-03-12T07:26:18.831Z,2.2
2019-03-12T07:27:18.864Z,2.2
2019-03-12T07:28:18.876Z,2.3
2019-03-12T07:29:18.957Z,2.3
2019-03-12T07:30:18.886Z,2.2
2019-03-12T07:31:19.030Z,2.2
2019-03-12T07:32:18.899Z,2.1
2019-03-12T07:33:18.911Z,2.2
2019-03-12T07:34:18.922Z,2.2
2019-03-12T07:35:19.033Z,2.2
2019-03-12T07:36:18.921Z,2.2
2019-03-12T07:37:18.924Z,2.2
2019-03-12T07:38:18.896Z,2.2
2019-03-12T07:39:18.923Z,2.3
2019-03-12T07:40:20.178Z,2.3
2019-03-12T07:41:24.830Z,2.2
2019-03-12T07:42:18.944Z,2.1
2019-03-12T07:43:18.930Z,2.2
2019-03-12T07:44:19.050Z,2.2
2019-03-12T07:45:18.935Z,2
2019-03-12T07:46:19.160Z,2
2019-03-12T07:47:18.977Z,1.9
2019-03-12T07:48:18.983Z,1.9
2019-03-12T07:49:18.970Z,2.2
2019-03-12T07:50:18.991Z,2.1
2019-03-12T07:51:19.005Z,2.1
2019-03-12T07:52:19.012Z,2.2
2019-03-12T07:53:19.034Z,2.3
2019-03-12T07:54:19.051Z,2.3
2019-03-12T07:55:19.030Z,2.2
2019-03-12T07:56:19.081Z,2.1
2019-03-12T07:57:19.129Z,2.1
2019-03-12T07:58:19.109Z,2.3
2019-03-12T07:59:19.073Z,2.4
2019-03-12T08:00:19.127Z,2.5
2019-03-12T08:01:19.176Z,2.4
2019-03-12T08:02:19.088Z,2.3
2019-03-12T08:03:19.123Z,2.1
2019-03-12T08:04:19.175Z,1.9
2019-03-12T08:05:19.166Z,1.8
2019-03-12T08:06:19.149Z,1.9
2019-03-12T08:07:19.151Z,1.8
2019-03-12T08:08:19.181Z,1.9
2019-03-12T08:09:19.196Z,1.9
2019-03-12T08:10:19.188Z,1.9
2019-03-12T08:11:19.185Z,2.1
2019-03-12T08:12:19.236Z,2.3
2019-03-12T08:13:19.225Z,2.3
2019-03-12T08:14:19.242Z,2.3
2019-03-12T08:15:23.231Z,2.2
2019-03-12T08:16:19.311Z,2.1
2019-03-12T08:17:19.233Z,2.3
2019-03-12T08:18:19.250Z,2.2
2019-03-12T08:19:19.293Z,2.1
2019-03-12T08:20:19.282Z,2.3
2019-03-12T08:21:22.442Z,2.4
2019-03-12T08:22:19.287Z,2.2
2019-03-12T08:23:19.304Z,2
2019-03-12T08:24:19.307Z,1.8
2019-03-12T08:25:19.323Z,1.7
2019-03-12T08:26:19.314Z,1.8
2019-03-12T08:27:21.344Z,1.8
2019-03-12T08:28:19.322Z,1.9
2019-03-12T08:29:19.467Z,1.9
2019-03-12T08:30:19.357Z,2
2019-03-12T08:31:19.365Z,2
2019-03-12T08:32:19.348Z,2.4
2019-03-12T08:33:19.348Z,2.4
2019-03-12T08:34:19.351Z,2.1
2019-03-12T08:35:19.355Z,2
2019-03-12T08:36:19.394Z,1.8
2019-03-12T08:37:19.385Z,1.8
2019-03-12T08:38:19.410Z,1.8
2019-03-12T08:39:19.396Z,1.7
2019-03-12T08:40:19.430Z,1.6
2019-03-12T08:41:19.418Z,1.7
2019-03-12T08:42:19.421Z,1.9
2019-03-12T08:43:19.593Z,1.8
2019-03-12T08:44:19.487Z,2
2019-03-12T08:45:19.428Z,2.1
2019-03-12T08:46:22.194Z,2.1
2019-03-12T08:47:19.687Z,2.3
2019-03-12T08:48:19.457Z,1.9
2019-03-12T08:49:19.464Z,1.7
2019-03-12T08:50:19.523Z,1.7
2019-03-12T08:51:19.476Z,1.8
2019-03-12T08:52:19.623Z,1.8
2019-03-12T08:53:19.561Z,1.8
2019-03-12T08:54:21.414Z,1.8
2019-03-12T08:55:19.534Z,1.9
2019-03-12T08:56:19.483Z,2.2
2019-03-12T08:57:19.526Z,2.1
2019-03-12T08:58:19.723Z,2.1
2019-03-12T08:59:19.567Z,1.9
2019-03-12T09:00:19.540Z,2
2019-03-12T09:01:19.506Z,2
2019-03-12T09:02:19.621Z,1.7
2019-03-12T09:03:19.534Z,1.4
2019-03-12T09:04:19.516Z,1.7
2019-03-12T09:05:19.575Z,1.6
2019-03-12T09:06:19.540Z,1.7
2019-03-12T09:07:19.561Z,1.7
2019-03-12T09:08:19.543Z,2
2019-03-12T09:09:19.810Z,1.8
2019-03-12T09:10:19.578Z,1.8
2019-03-12T09:11:19.572Z,1.6
2019-03-12T09:12:19.570Z,1.7
2019-03-12T09:13:19.571Z,1.7
2019-03-12T09:14:19.608Z,1.9
2019-03-12T09:15:22.148Z,1.8
2019-03-12T09:16:19.603Z,1.7
2019-03-12T09:17:19.581Z,1.7
2019-03-12T09:18:19.607Z,1.7
2019-03-12T09:19:19.593Z,1.8
2019-03-12T09:20:19.636Z,1.9
2019-03-12T09:21:19.645Z,1.7
2019-03-12T09:22:19.651Z,1.8
2019-03-12T09:23:19.634Z,1.9
2019-03-12T09:24:19.630Z,1.7
2019-03-12T09:25:19.746Z,1.7
2019-03-12T09:26:19.651Z,1.8
2019-03-12T09:27:19.626Z,1.6
2019-03-12T09:28:19.707Z,1.4
2019-03-12T09:29:19.685Z,1.5
2019-03-12T09:30:19.641Z,1.6
2019-03-12T09:31:22.144Z,1.4
2019-03-12T09:32:19.636Z,1.5
2019-03-12T09:33:19.677Z,1.6
2019-03-12T09:34:19.658Z,1.6
2019-03-12T09:35:19.676Z,1.6
2019-03-12T09:36:19.704Z,2
2019-03-12T09:37:19.698Z,2
2019-03-12T09:38:19.723Z,1.7
2019-03-12T09:39:19.819Z,1.8
2019-03-12T09:40:19.679Z,1.9
2019-03-12T09:41:19.693Z,1.7
2019-03-12T09:42:20.740Z,1.9
2019-03-12T09:43:19.703Z,2
2019-03-12T09:44:19.710Z,1.7
2019-03-12T09:45:19.747Z,1.7
2019-03-12T09:46:19.733Z,1.7
2019-03-12T09:47:19.738Z,1.7
2019-03-12T09:48:19.742Z,1.5
2019-03-12T09:49:19.733Z,1.5
2019-03-12T09:50:19.741Z,1.4
2019-03-12T09:51:19.729Z,1.5
2019-03-12T09:52:19.739Z,1.8
2019-03-12T09:53:19.740Z,1.8
2019-03-12T09:54:19.772Z,1.7
2019-03-12T09:55:19.755Z,1.6
2019-03-12T09:56:19.780Z,1.5
2019-03-12T09:57:19.789Z,1.5
2019-03-12T09:58:19.764Z,1.3
2019-03-12T09:59:19.760Z,1.5
2019-03-12T10:00:19.851Z,1.6
2019-03-12T10:01:19.805Z,1.5
2019-03-12T10:02:19.795Z,1.5
2019-03-12T10:03:19.806Z,1.4
2019-03-12T10:04:19.864Z,1.3
2019-03-12T10:05:20.044Z,1.4
2019-03-12T10:06:19.816Z,1.5
2019-03-12T10:07:19.801Z,1.3
2019-03-12T10:08:20.887Z,1.3
2019-03-12T10:09:19.825Z,1.6
2019-03-12T10:10:19.870Z,1.7
2019-03-12T10:11:19.833Z,1.9
2019-03-12T10:12:19.867Z,1.8
2019-03-12T10:13:19.822Z,1.7
2019-03-12T10:14:19.845Z,1.7
2019-03-12T10:15:19.896Z,1.6
2019-03-12T10:16:19.861Z,1.4
2019-03-12T10:17:20.384Z,1.2
2019-03-12T10:18:19.864Z,1.6
2019-03-12T10:19:19.907Z,1.5
2019-03-12T10:20:19.917Z,1.4
2019-03-12T10:21:19.881Z,1.7
2019-03-12T10:22:19.903Z,1.3
2019-03-12T10:23:19.895Z,1.4
2019-03-12T10:24:19.898Z,1.3
2019-03-12T10:25:19.896Z,1
2019-03-12T10:26:19.910Z,0.9
2019-03-12T10:27:20.004Z,1.1
2019-03-12T10:28:19.886Z,1.3
2019-03-12T10:29:19.904Z,1.3
2019-03-12T10:30:19.920Z,1.5
2019-03-12T10:31:19.887Z,1.4
2019-03-12T10:32:19.934Z,1.2
2019-03-12T10:33:19.924Z,1.1
2019-03-12T10:34:28.757Z,1.3
2019-03-12T10:35:20.018Z,1.3
2019-03-12T10:36:20.117Z,1.4
2019-03-12T10:37:19.938Z,1.2
2019-03-12T10:38:19.957Z,1
2019-03-12T10:39:19.962Z,1.2
2019-03-12T10:40:19.943Z,1.1
2019-03-12T10:41:19.966Z,1.2
2019-03-12T10:42:19.988Z,0.6
2019-03-12T10:43:19.973Z,1
2019-03-12T10:44:19.984Z,1.1
2019-03-12T10:45:20.021Z,1.5
2019-03-12T10:46:19.989Z,1.4
2019-03-12T10:47:20.009Z,1
2019-03-12T10:48:20.014Z,0.6
2019-03-12T10:49:20.039Z,0.7
2019-03-12T10:50:20.026Z,0.6
2019-03-12T10:51:20.015Z,0.4
2019-03-12T10:52:20.041Z,0.6
2019-03-12T10:53:20.072Z,0.7
2019-03-12T10:54:20.027Z,0.3
2019-03-12T10:55:20.062Z,0.4
2019-03-12T10:56:20.046Z,0.4
2019-03-12T10:57:21.522Z,0.7
2019-03-12T10:58:20.083Z,0.9
2019-03-12T10:59:20.071Z,0.3
2019-03-12T11:00:20.094Z,0.2
2019-03-12T11:01:20.131Z,0.8
2019-03-12T11:02:20.103Z,0.8
2019-03-12T11:03:20.204Z,0.5
2019-03-12T11:04:20.138Z,0
2019-03-12T11:05:21.215Z,0
2019-03-12T11:06:20.148Z,0
2019-03-12T11:07:20.155Z,0.2
2019-03-12T11:08:20.168Z,0.3
2019-03-12T11:09:20.144Z,0.7
2019-03-12T11:10:20.197Z,0.3
2019-03-12T11:11:20.170Z,0.5
2019-03-12T11:12:20.189Z,0.5
2019-03-12T11:13:20.185Z,0.3
2019-03-12T11:14:20.200Z,0.5
2019-03-12T11:15:20.230Z,0.5
2019-03-12T11:16:20.445Z,0.7
2019-03-12T11:17:20.455Z,0.6
2019-03-12T11:18:20.205Z,1
2019-03-12T11:19:20.214Z,0.5
2019-03-12T11:20:20.214Z,0.6
2019-03-12T11:21:20.221Z,0.5
2019-03-12T11:22:20.444Z,0.5
2019-03-12T11:23:20.253Z,0.2
2019-03-12T11:24:20.264Z,0.2
2019-03-12T11:25:26.897Z,0
2019-03-12T11:26:20.280Z,0.5
2019-03-12T11:27:20.258Z,0.3
2019-03-12T11:28:20.310Z,0
2019-03-12T11:29:20.285Z,0.1
2019-03-12T11:30:20.320Z,-0.2
2019-03-12T11:31:20.302Z,-0.1
2019-03-12T11:32:20.313Z,-0.1
2019-03-12T11:33:20.316Z,0.1
2019-03-12T11:34:20.319Z,0.2
2019-03-12T11:35:20.335Z,0
2019-03-12T11:36:20.339Z,-0.2
2019-03-12T11:37:20.367Z,-0.2
2019-03-12T11:38:20.350Z,-0.2
2019-03-12T11:39:20.378Z,-0.1
2019-03-12T11:40:20.410Z,0
2019-03-12T11:41:20.370Z,-0.6
2019-03-12T11:42:20.357Z,0
2019-03-12T11:43:20.354Z,0.1
2019-03-12T11:44:20.343Z,0
2019-03-12T11:45:25.811Z,-0.6
2019-03-12T11:46:20.347Z,-0.8
2019-03-12T11:47:20.366Z,-0.7
2019-03-12T11:48:20.381Z,-0.9
2019-03-12T11:49:20.372Z,-0.8
2019-03-12T11:50:20.656Z,-0.9
2019-03-12T11:51:20.381Z,-0.6
2019-03-12T11:52:20.415Z,-0.7
2019-03-12T11:53:20.367Z,-0.3
2019-03-12T11:54:20.486Z,-0.5
2019-03-12T11:55:23.069Z,-0.9
2019-03-12T11:56:20.454Z,-1.1
2019-03-12T11:57:20.505Z,-1.2
2019-03-12T11:58:20.419Z,-1.1
2019-03-12T11:59:20.498Z,-0.8
2019-03-12T12:00:20.450Z,-1.1
2019-03-12T12:01:23.045Z,-1.1
2019-03-12T12:02:20.511Z,-0.7
2019-03-12T12:03:20.436Z,-0.9
2019-03-12T12:04:20.453Z,-1
2019-03-12T12:05:20.463Z,-1.2
2019-03-12T12:06:20.468Z,-0.8
2019-03-12T12:07:20.554Z,-0.8
2019-03-12T12:08:20.504Z,-0.8
2019-03-12T12:09:20.494Z,-0.8
2019-03-12T12:10:20.488Z,-0.3
2019-03-12T12:11:20.489Z,-0.6
2019-03-12T12:12:20.474Z,-0.6
2019-03-12T12:13:20.472Z,-0.7
2019-03-12T12:14:20.514Z,-0.9
2019-03-12T12:15:21.437Z,-0.6
2019-03-12T12:16:20.523Z,-1
2019-03-12T12:17:20.496Z,-0.9
2019-03-12T12:18:20.517Z,-0.8
2019-03-12T12:19:20.511Z,-0.8
2019-03-12T12:20:29.242Z,-0.9
2019-03-12T12:21:20.541Z,-1.1
2019-03-12T12:22:20.562Z,-1.2
2019-03-12T12:23:20.542Z,-1.2
2019-03-12T12:24:20.589Z,-1
2019-03-12T12:25:20.729Z,-1
2019-03-12T12:26:20.576Z,-1
2019-03-12T12:27:20.549Z,-1.1
2019-03-12T12:28:20.657Z,-0.7
2019-03-12T12:29:20.564Z,-0.5
2019-03-12T12:30:20.574Z,-0.8
2019-03-12T12:31:20.565Z,-0.3
2019-03-12T12:32:20.618Z,-0.2
2019-03-12T12:33:20.585Z,-0.4
2019-03-12T12:34:20.612Z,-0.6
2019-03-12T12:35:20.587Z,-0.3
2019-03-12T12:36:20.590Z,-0.9
2019-03-12T12:37:20.601Z,-1
2019-03-12T12:38:20.613Z,-1.2
2019-03-12T12:39:20.588Z,-1.2
2019-03-12T12:40:21.681Z,-1.3
2019-03-12T12:41:20.634Z,-1.4
2019-03-12T12:42:20.600Z,-1.6
2019-03-12T12:43:20.652Z,-1.3
2019-03-12T12:44:20.627Z,-1.6
2019-03-12T12:45:20.652Z,-1
2019-03-12T12:46:20.632Z,-1.2
2019-03-12T12:47:20.642Z,-0.7
2019-03-12T12:48:20.624Z,-0.7
2019-03-12T12:49:20.755Z,-1
2019-03-12T12:50:20.686Z,-1.1
2019-03-12T12:51:20.681Z,-0.9
2019-03-12T12:52:20.970Z,-0.8
2019-03-12T12:53:20.702Z,-1.1
2019-03-12T12:54:20.668Z,-0.9
2019-03-12T12:55:20.682Z,-1.1
2019-03-12T12:56:20.678Z,-1.1
2019-03-12T12:57:20.717Z,-1
2019-03-12T12:58:20.710Z,-0.8
2019-03-12T12:59:20.673Z,-0.6
2019-03-12T13:00:20.727Z,-0.8
2019-03-12T13:01:20.758Z,-0.9
2019-03-12T13:02:20.749Z,-0.9
2019-03-12T13:03:20.937Z,-0.8
2019-03-12T13:04:20.743Z,-0.7
2019-03-12T13:05:20.802Z,-0.6
2019-03-12T13:06:20.908Z,-0.8
2019-03-12T13:07:20.759Z,-0.5
2019-03-12T13:08:20.787Z,-1
2019-03-12T13:09:20.824Z,-1.1
2019-03-12T13:10:20.795Z,-0.5
2019-03-12T13:11:20.791Z,-0.9
2019-03-12T13:12:20.838Z,-0.9
2019-03-12T13:13:20.826Z,-1
2019-03-12T13:14:20.872Z,-1.1
2019-03-12T13:15:20.825Z,-1.2
2019-03-12T13:16:25.257Z,-1.3
2019-03-12T13:17:20.861Z,-1.6
2019-03-12T13:18:20.890Z,-1.6
2019-03-12T13:19:20.860Z,-1
2019-03-12T13:20:20.848Z,-1.1
2019-03-12T13:21:20.859Z,-1.3
2019-03-12T13:22:20.874Z,-1.9
2019-03-12T13:23:20.885Z,-1.4
2019-03-12T13:24:21.013Z,-1.6
2019-03-12T13:25:20.916Z,-1.9
2019-03-12T13:26:20.882Z,-1.8
2019-03-12T13:27:20.918Z,-1.9
2019-03-12T13:28:20.947Z,-1.6
2019-03-12T13:29:20.948Z,-1.5
2019-03-12T13:31:20.915Z,-1.7
2019-03-12T13:32:21.143Z,-1.6
2019-03-12T13:33:20.930Z,-1.2
2019-03-12T13:34:20.935Z,-1.3
2019-03-12T13:35:20.980Z,-1.6
2019-03-12T13:36:20.989Z,-1.6
2019-03-12T13:37:20.963Z,-1.9
2019-03-12T13:38:20.996Z,-1.7
2019-03-12T13:39:21.004Z,-1.2
2019-03-12T13:40:21.097Z,-1.4
2019-03-12T13:41:21.061Z,-1.2
2019-03-12T13:42:21.061Z,-1.5
2019-03-12T13:43:21.036Z,-1.6
2019-03-12T13:44:21.000Z,-1.2
2019-03-12T13:45:21.382Z,-1.2
2019-03-12T13:46:21.064Z,-1.7
2019-03-12T13:47:20.999Z,-1.3
2019-03-12T13:48:21.031Z,-1.6
2019-03-12T13:49:21.062Z,-1.9
2019-03-12T13:50:21.283Z,-1.7
2019-03-12T13:51:21.032Z,-1.5